Aérodrome :
LOGIN :

S'inscrire | Disclaimer

   EN    FR    IT 

 










Légende :    VFR   VFR Marginal   IFR   IFR Intensif   IFR Très Intensif
Visi : 
Plafond : 
>= 8 km
>= 3000ft
5 à 8 km
1000 à 3000 ft
1500m à 5 km
500 à 1000 ft
800 à 1500m
200 à 500 ft
< 800m
< 200 ft
Symboles :   Orages  Brouillard  Fortes neiges  Fortes précipitations  Vent > 20 kt
SIGMETs :   Divers  Orages  Givrage  Turbulence  Onde Orograph.  Cendres Volcan.






- Altitude de l'aérodrome : 1197 ft
- Code IATA : SPM


ETAD - Spangdahlem Ab

DERNIER METAR :
  • 041456Z AUTO 05003KT 9999 SCT090 18/13 A2991 RMK AO2 VIS 1600 RWY05 SLP113 T01810127 58004 $

METARs EXPIRÉS :
  • 041356Z AUTO 11003KT 9999 FEW060 BKN080 18/12 A2992 RMK AO2 VIS 1400 RWY05 SLP116 T01760118 $
  • 041256Z AUTO 12004KT 9999 FEW028 SCT035 BKN070 18/12 A2993 RMK AO2 SLP120 T01800120 $
  • 041232Z AUTO 00000KT 9999 BKN029 BKN034 19/12 A2992 RMK AO2 CIG 027 RWY05 SLP116 $
  • 041226Z AUTO 00000KT 9999 BKN031 19/12 A2993 RMK AO2 SLP120 $
  • 041156Z AUTO 16004KT 9999 FEW085 SCT140 SCT190 SCT210 19/13 A2993 RMK AO2 SLP120 T01880125 10188 20137 57007 $

TAF TAF ETAD
Valide du 04 à 12h jusqu'au 05 à 18h UTC


041200Z 0412/0518 VRB06KT 9999 SCT025 BKN050 QNH2988INS
TEMPO 0413/0416 8000 -SHRA BKN025 OVC050
BECMG 0421/0422 VRB03KT 5000 BR SCT020 QNH2986INS
BECMG 0502/0503 VRB06KT 5000 BR BKN005 BKN015 QNH2985INS
BECMG 0508/0509 VRB06KT 9999 SCT010 BKN015 QNH2985INS TX19/0415Z TN11/0502Z



MET'MAP, la Météo Aéronautique d'un coup d'oeil ! - Copyright ORBIFLY Décembre 2007 - Disclaimer

ORBIFLY MET'MAP TEAM :

Programmation & Développement : Alexandra Zaïnal
Sur une idée originale de : Baudouin d'Aumeries
Assistance à la programmation : Marc-Olivier Méhu
Soutien technique & logistique : Manuel Goepfert

Contact : metmap@orbifly.com




SOURCES & CREDITS :

   NOAA